createdAt,value
2022-10-25T00:01:30.030Z,13.40
2022-10-25T00:03:57.237Z,13.50
2022-10-25T00:06:24.222Z,13.00
2022-10-25T00:08:51.618Z,13.10
2022-10-25T00:11:22.623Z,13.50
2022-10-25T00:13:53.834Z,13.50
2022-10-25T00:16:24.040Z,13.50
2022-10-25T00:18:51.027Z,13.60
2022-10-25T00:21:18.707Z,13.50
2022-10-25T00:23:46.353Z,13.60
2022-10-25T00:26:13.754Z,13.40
2022-10-25T00:28:41.119Z,13.60
2022-10-25T00:31:11.026Z,13.60
2022-10-25T00:33:38.766Z,13.60
2022-10-25T00:36:09.835Z,13.50
2022-10-25T00:38:39.341Z,13.60
2022-10-25T00:41:07.037Z,13.60
2022-10-25T00:43:37.461Z,13.60
2022-10-25T00:46:14.378Z,13.70
2022-10-25T00:48:44.685Z,13.70
2022-10-25T00:51:11.660Z,13.70
2022-10-25T00:53:38.788Z,13.80
2022-10-25T00:56:16.946Z,13.80
2022-10-25T00:58:49.214Z,13.90
2022-10-25T01:01:16.354Z,13.90
2022-10-25T01:03:45.518Z,13.90
2022-10-25T01:06:23.270Z,14.60
2022-10-25T01:08:52.663Z,13.90
2022-10-25T01:11:20.578Z,13.80
2022-10-25T01:13:49.017Z,14.00
2022-10-25T01:16:34.544Z,14.20
2022-10-25T01:19:22.618Z,14.10
2022-10-25T01:21:52.938Z,14.10
2022-10-25T01:24:34.927Z,14.10
2022-10-25T01:27:20.526Z,14.20
2022-10-25T01:30:15.857Z,14.10
2022-10-25T01:32:55.352Z,14.10
2022-10-25T01:35:32.592Z,14.10
2022-10-25T01:38:07.209Z,14.10
2022-10-25T01:40:58.774Z,14.10
2022-10-25T01:43:56.758Z,14.20
2022-10-25T01:46:36.561Z,14.20
2022-10-25T01:49:12.248Z,14.10
2022-10-25T01:51:41.655Z,14.20
2022-10-25T01:54:25.092Z,14.20
2022-10-25T01:57:06.208Z,14.20
2022-10-25T02:00:11.202Z,14.20
2022-10-25T02:02:43.592Z,14.30
2022-10-25T02:05:31.657Z,14.30
2022-10-25T02:08:24.569Z,14.30
2022-10-25T02:11:06.637Z,14.40
2022-10-25T02:14:01.238Z,14.40
2022-10-25T02:16:34.290Z,14.40
2022-10-25T02:19:06.707Z,14.50
2022-10-25T02:21:35.916Z,14.40
2022-10-25T02:24:09.265Z,14.50
2022-10-25T02:26:36.748Z,14.60
2022-10-25T02:29:05.041Z,14.60
2022-10-25T02:31:35.553Z,14.50
2022-10-25T02:34:05.714Z,14.50
2022-10-25T02:36:32.630Z,14.50
2022-10-25T02:39:00.665Z,14.50
2022-10-25T02:41:27.466Z,14.50
2022-10-25T02:43:54.431Z,14.40
2022-10-25T02:46:23.288Z,14.50
2022-10-25T02:48:51.122Z,14.50
2022-10-25T02:51:18.674Z,14.50
2022-10-25T02:53:45.486Z,14.60
2022-10-25T02:56:15.481Z,14.60
2022-10-25T02:58:43.837Z,14.60
2022-10-25T03:01:11.622Z,14.70
2022-10-25T03:03:38.778Z,14.70
2022-10-25T03:06:06.086Z,14.70
2022-10-25T03:08:33.119Z,14.70
2022-10-25T03:11:00.517Z,14.70
2022-10-25T03:13:27.230Z,14.80
2022-10-25T03:15:54.217Z,14.80
2022-10-25T03:18:22.390Z,14.80
2022-10-25T03:20:49.593Z,15.70
2022-10-25T03:23:17.159Z,14.60
2022-10-25T03:25:44.091Z,15.40
2022-10-25T03:28:11.017Z,14.70
2022-10-25T03:30:45.869Z,15.20
2022-10-25T03:33:12.604Z,14.80
2022-10-25T03:35:40.244Z,16.30
2022-10-25T03:38:11.174Z,14.90
2022-10-25T03:40:37.914Z,14.60
2022-10-25T03:43:04.582Z,15.10
2022-10-25T03:45:31.396Z,14.90
2022-10-25T03:47:58.068Z,14.90
2022-10-25T03:50:24.951Z,15.00
2022-10-25T03:52:51.638Z,14.80
2022-10-25T03:55:18.509Z,14.80
2022-10-25T03:57:45.479Z,14.80
2022-10-25T04:00:13.410Z,14.70
2022-10-25T04:02:40.442Z,14.70
2022-10-25T04:05:10.064Z,14.70
2022-10-25T04:07:37.187Z,14.70
2022-10-25T04:10:04.986Z,14.70
2022-10-25T04:12:31.781Z,14.80
2022-10-25T04:15:04.218Z,14.70
2022-10-25T04:17:31.085Z,14.60
2022-10-25T04:19:58.075Z,14.90
2022-10-25T04:22:25.002Z,14.70
2022-10-25T04:24:51.875Z,14.20
2022-10-25T04:27:18.688Z,14.70
2022-10-25T04:29:45.768Z,14.70
2022-10-25T04:32:12.777Z,14.70
2022-10-25T04:34:39.776Z,14.70
2022-10-25T04:37:06.759Z,15.50
2022-10-25T04:39:33.451Z,15.10
2022-10-25T04:42:01.306Z,14.70
2022-10-25T04:44:28.054Z,14.70
2022-10-25T04:46:54.749Z,14.30
2022-10-25T04:49:21.564Z,15.30
2022-10-25T04:54:18.233Z,14.70
2022-10-25T04:56:44.917Z,14.70
2022-10-25T04:59:12.621Z,14.70
2022-10-25T05:01:39.513Z,14.70
2022-10-25T05:04:06.320Z,14.70
2022-10-25T05:06:33.102Z,14.60
2022-10-25T05:08:59.801Z,14.60
2022-10-25T05:11:26.795Z,14.80
2022-10-25T05:13:53.556Z,14.80
2022-10-25T05:16:23.598Z,14.70
2022-10-25T05:18:54.536Z,14.80
2022-10-25T05:24:02.243Z,14.60
2022-10-25T05:26:29.783Z,14.60
2022-10-25T05:28:57.044Z,14.40
2022-10-25T05:31:29.615Z,14.70
2022-10-25T05:33:59.026Z,14.50
2022-10-25T05:36:26.253Z,14.50
2022-10-25T05:38:52.945Z,14.60
2022-10-25T05:41:19.893Z,14.60
2022-10-25T05:43:47.402Z,14.60
2022-10-25T05:46:16.945Z,14.60
2022-10-25T05:48:48.476Z,14.70
2022-10-25T05:51:33.172Z,14.60
2022-10-25T05:54:06.991Z,14.50
2022-10-25T05:56:35.337Z,14.50
2022-10-25T05:59:09.079Z,14.40
2022-10-25T06:01:41.200Z,14.40
2022-10-25T06:04:08.621Z,14.50
2022-10-25T06:06:36.877Z,14.40
2022-10-25T06:09:05.673Z,14.50
2022-10-25T06:11:34.390Z,14.80
2022-10-25T06:14:01.461Z,14.30
2022-10-25T06:16:28.336Z,14.30
2022-10-25T06:18:55.161Z,14.80
2022-10-25T06:21:30.913Z,16.00
2022-10-25T06:23:59.420Z,14.40
2022-10-25T06:26:28.192Z,14.40
2022-10-25T06:29:00.992Z,14.40
2022-10-25T06:31:28.793Z,14.40
2022-10-25T06:33:55.565Z,14.40
2022-10-25T06:36:24.010Z,14.70
2022-10-25T06:38:51.209Z,14.50
2022-10-25T06:41:20.424Z,14.90
2022-10-25T06:43:47.872Z,14.40
2022-10-25T06:46:33.194Z,14.40
2022-10-25T06:49:01.625Z,14.50
2022-10-25T06:51:29.714Z,14.50
2022-10-25T06:53:57.988Z,14.50
2022-10-25T06:56:26.167Z,14.90
2022-10-25T06:58:53.899Z,14.50
2022-10-25T07:01:22.011Z,14.50
2022-10-25T07:03:50.806Z,14.60
2022-10-25T07:06:23.178Z,14.60
2022-10-25T07:08:56.892Z,14.90
2022-10-25T07:11:25.713Z,14.60
2022-10-25T07:13:52.791Z,14.60
2022-10-25T07:16:21.324Z,15.10
2022-10-25T07:18:48.714Z,15.10
2022-10-25T07:21:20.153Z,14.90
2022-10-25T07:23:47.408Z,14.70
2022-10-25T07:26:21.623Z,14.70
2022-10-25T07:28:49.950Z,14.40
2022-10-25T07:31:20.077Z,14.80
2022-10-25T07:33:47.435Z,14.70
2022-10-25T07:36:14.423Z,14.70
2022-10-25T07:38:41.201Z,14.70
2022-10-25T07:41:08.751Z,14.70
2022-10-25T07:43:35.734Z,14.70
2022-10-25T07:46:02.792Z,14.60
2022-10-25T07:48:29.540Z,14.70
2022-10-25T07:50:59.872Z,14.70
2022-10-25T07:53:26.838Z,14.80
2022-10-25T07:55:55.315Z,14.80
2022-10-25T07:58:22.473Z,15.60
2022-10-25T08:00:49.518Z,15.00
2022-10-25T08:03:17.871Z,15.00
2022-10-25T08:05:46.630Z,15.10
2022-10-25T08:08:14.541Z,15.20
2022-10-25T08:10:44.821Z,15.20
2022-10-25T08:13:11.858Z,15.30
2022-10-25T08:15:41.040Z,15.10
2022-10-25T08:18:09.798Z,15.20
2022-10-25T08:21:00.499Z,15.30
2022-10-25T08:23:25.352Z,15.40
2022-10-25T08:25:52.519Z,15.40
2022-10-25T08:28:20.104Z,15.50
2022-10-25T08:30:46.838Z,15.50
2022-10-25T08:33:14.260Z,15.60
2022-10-25T08:35:41.119Z,15.60
2022-10-25T08:38:07.859Z,15.80
2022-10-25T08:40:48.762Z,15.80
2022-10-25T08:43:27.713Z,15.90
2022-10-25T08:46:03.408Z,15.90
2022-10-25T08:48:54.211Z,15.90
2022-10-25T08:51:36.066Z,15.90
2022-10-25T08:54:11.691Z,15.90
2022-10-25T08:56:42.707Z,15.80
2022-10-25T08:59:28.723Z,15.80
2022-10-25T09:01:59.581Z,15.80
2022-10-25T09:04:27.123Z,15.80
2022-10-25T09:07:05.587Z,15.80
2022-10-25T09:09:45.414Z,15.80
2022-10-25T09:12:17.843Z,15.80
2022-10-25T09:14:53.933Z,15.80
2022-10-25T09:17:23.287Z,15.90
2022-10-25T09:20:05.400Z,15.80
2022-10-25T09:22:49.402Z,15.90
2022-10-25T09:25:40.393Z,15.90
2022-10-25T09:28:14.975Z,15.90
2022-10-25T09:30:44.052Z,15.90
2022-10-25T09:33:13.808Z,16.10
2022-10-25T09:35:53.942Z,16.10
2022-10-25T09:38:46.597Z,16.20
2022-10-25T09:41:22.826Z,16.20
2022-10-25T09:44:01.032Z,16.50
2022-10-25T09:46:35.131Z,16.20
2022-10-25T09:49:11.031Z,16.20
2022-10-25T09:52:17.082Z,16.20
2022-10-25T09:55:13.963Z,16.30
2022-10-25T09:57:41.906Z,16.40
2022-10-25T10:00:14.401Z,16.40
2022-10-25T10:02:41.783Z,16.30
2022-10-25T10:05:20.712Z,16.20
2022-10-25T10:07:49.559Z,16.20
2022-10-25T10:10:24.148Z,16.20
2022-10-25T10:15:45.083Z,17.00
2022-10-25T10:18:22.578Z,16.30
2022-10-25T10:21:12.274Z,16.30
2022-10-25T10:23:42.401Z,16.30
2022-10-25T10:26:21.004Z,16.20
2022-10-25T10:28:54.661Z,16.20
2022-10-25T10:31:22.888Z,16.20
2022-10-25T10:33:51.683Z,16.20
2022-10-25T10:36:27.607Z,16.20
2022-10-25T10:39:22.326Z,16.20
2022-10-25T10:42:03.500Z,16.20
2022-10-25T10:44:34.559Z,16.20
2022-10-25T10:47:10.035Z,16.30
2022-10-25T10:49:41.250Z,16.40
2022-10-25T10:52:33.617Z,16.80
2022-10-25T10:55:01.191Z,16.70
2022-10-25T10:57:34.017Z,16.90
2022-10-25T11:00:02.578Z,17.00
2022-10-25T11:02:42.542Z,17.10
2022-10-25T11:05:35.216Z,17.20
2022-10-25T11:08:18.240Z,17.20
2022-10-25T11:10:45.169Z,17.10
2022-10-25T11:13:25.873Z,17.10
2022-10-25T11:16:09.002Z,17.00
2022-10-25T11:18:42.452Z,17.00
2022-10-25T11:21:34.782Z,17.00
2022-10-25T11:24:13.710Z,17.00
2022-10-25T11:26:43.488Z,16.90
2022-10-25T11:29:44.811Z,16.80
2022-10-25T11:32:51.283Z,16.80
2022-10-25T11:35:40.513Z,16.90
2022-10-25T11:38:20.253Z,16.90
2022-10-25T11:41:06.540Z,17.10
2022-10-25T11:44:02.720Z,17.20
2022-10-25T11:46:48.479Z,18.00
2022-10-25T11:49:37.393Z,17.50
2022-10-25T11:52:07.219Z,17.70
2022-10-25T11:54:55.914Z,17.80
2022-10-25T11:57:22.599Z,18.00
2022-10-25T12:00:01.667Z,18.10
2022-10-25T12:02:54.791Z,18.30
2022-10-25T12:05:56.779Z,18.50
2022-10-25T12:08:38.662Z,18.60
2022-10-25T12:11:12.772Z,18.70
2022-10-25T12:13:48.787Z,18.70
2022-10-25T12:16:19.122Z,18.70
2022-10-25T12:18:52.456Z,18.50
2022-10-25T12:21:23.929Z,18.40
2022-10-25T12:23:53.794Z,18.30
2022-10-25T12:26:30.569Z,18.30
2022-10-25T12:29:03.613Z,18.40
2022-10-25T12:31:40.506Z,18.40
2022-10-25T12:34:22.404Z,18.50
2022-10-25T12:36:56.575Z,18.70
2022-10-25T12:39:36.154Z,18.80
2022-10-25T12:42:07.961Z,19.00
2022-10-25T12:45:02.747Z,19.00
2022-10-25T12:47:47.657Z,19.10
2022-10-25T12:50:26.199Z,19.00
2022-10-25T12:53:49.399Z,18.90
2022-10-25T12:56:40.369Z,18.80
2022-10-25T12:59:38.227Z,18.60
2022-10-25T13:02:33.956Z,18.50
2022-10-25T13:05:30.421Z,18.40
2022-10-25T13:08:04.689Z,18.50
2022-10-25T13:10:57.628Z,18.40
2022-10-25T13:13:28.283Z,18.50
2022-10-25T13:15:59.001Z,18.50
2022-10-25T13:18:43.767Z,18.50
2022-10-25T13:21:16.872Z,18.50
2022-10-25T13:23:43.718Z,18.40
2022-10-25T13:26:16.823Z,18.30
2022-10-25T13:28:44.879Z,18.30
2022-10-25T13:31:33.845Z,18.30
2022-10-25T13:34:28.778Z,18.30
2022-10-25T13:37:02.006Z,18.70
2022-10-25T13:39:33.382Z,17.50
2022-10-25T13:42:15.164Z,18.40
2022-10-25T13:45:03.353Z,18.40
2022-10-25T13:47:38.525Z,18.40
2022-10-25T13:50:32.382Z,18.40
2022-10-25T13:53:03.900Z,18.30
2022-10-25T13:55:37.475Z,18.20
2022-10-25T13:58:41.730Z,18.10
2022-10-25T14:01:17.936Z,18.00
2022-10-25T14:04:33.880Z,18.00
2022-10-25T14:07:38.230Z,18.00
2022-10-25T14:10:09.290Z,18.00
2022-10-25T14:12:36.770Z,18.10
2022-10-25T14:15:07.898Z,18.20
2022-10-25T14:17:43.181Z,18.10
2022-10-25T14:20:32.404Z,18.00
2022-10-25T14:23:04.024Z,18.00
2022-10-25T14:25:36.092Z,17.90
2022-10-25T14:28:17.735Z,17.90
2022-10-25T14:30:55.951Z,17.90
2022-10-25T14:33:26.378Z,17.90
2022-10-25T14:36:06.733Z,17.90
2022-10-25T14:38:51.211Z,17.90
2022-10-25T14:41:22.780Z,17.90
2022-10-25T14:43:49.973Z,17.90
2022-10-25T14:46:19.075Z,17.90
2022-10-25T14:48:53.373Z,17.90
2022-10-25T14:51:41.201Z,17.90
2022-10-25T14:54:27.471Z,17.80
2022-10-25T14:57:08.925Z,17.80
2022-10-25T14:59:44.949Z,17.60
2022-10-25T15:02:40.919Z,17.70
2022-10-25T15:05:14.878Z,17.70
2022-10-25T15:07:49.311Z,17.60
2022-10-25T15:10:43.914Z,17.60
2022-10-25T15:13:34.391Z,17.60
2022-10-25T15:16:38.623Z,17.60
2022-10-25T15:19:09.267Z,17.60
2022-10-25T15:22:05.131Z,17.50
2022-10-25T15:24:49.957Z,17.50
2022-10-25T15:27:40.762Z,17.40
2022-10-25T15:30:59.462Z,17.40
2022-10-25T15:33:29.412Z,17.40
2022-10-25T15:35:57.760Z,17.40
2022-10-25T15:38:48.005Z,17.10
2022-10-25T15:41:20.596Z,18.30
2022-10-25T15:43:49.728Z,17.10
2022-10-25T15:46:38.339Z,17.50
2022-10-25T15:49:09.544Z,17.00
2022-10-25T15:51:42.330Z,17.00
2022-10-25T15:54:24.859Z,16.10
2022-10-25T15:56:52.075Z,16.80
2022-10-25T15:59:19.028Z,16.70
2022-10-25T16:01:51.253Z,16.70
2022-10-25T16:04:19.459Z,16.60
2022-10-25T16:06:47.138Z,16.70
2022-10-25T16:09:14.010Z,17.00
2022-10-25T16:11:46.447Z,16.40
2022-10-25T16:14:23.918Z,16.30
2022-10-25T16:16:51.277Z,16.70
2022-10-25T16:19:19.945Z,16.20
2022-10-25T16:21:49.645Z,16.10
2022-10-25T16:24:19.827Z,16.00
2022-10-25T16:26:49.785Z,16.10
2022-10-25T16:29:19.373Z,15.90
2022-10-25T16:31:49.633Z,15.90
2022-10-25T16:34:18.052Z,15.80
2022-10-25T16:36:48.798Z,15.70
2022-10-25T16:39:16.329Z,15.70
2022-10-25T16:41:47.700Z,17.10
2022-10-25T16:44:18.462Z,15.60
2022-10-25T16:46:47.559Z,15.50
2022-10-25T16:49:15.577Z,16.50
2022-10-25T16:51:44.349Z,15.40
2022-10-25T16:54:13.535Z,15.60
2022-10-25T16:56:44.375Z,15.10
2022-10-25T16:59:11.614Z,15.20
2022-10-25T17:01:44.873Z,15.10
2022-10-25T17:04:14.123Z,15.10
2022-10-25T17:06:43.522Z,15.00
2022-10-25T17:09:11.440Z,14.90
2022-10-25T17:11:42.066Z,15.00
2022-10-25T17:14:12.169Z,14.80
2022-10-25T17:16:44.310Z,14.80
2022-10-25T17:19:13.229Z,14.70
2022-10-25T17:21:41.825Z,14.70
2022-10-25T17:24:09.902Z,13.60
2022-10-25T17:26:37.854Z,14.60
2022-10-25T17:29:06.004Z,14.40
2022-10-25T17:31:34.005Z,14.60
2022-10-25T17:34:01.375Z,15.20
2022-10-25T17:36:32.757Z,14.40
2022-10-25T17:39:05.852Z,14.40
2022-10-25T17:41:32.811Z,14.70
2022-10-25T17:44:00.151Z,14.20
2022-10-25T17:46:34.268Z,14.20
2022-10-25T17:49:03.607Z,14.10
2022-10-25T17:51:33.911Z,14.00
2022-10-25T17:54:00.944Z,13.90
2022-10-25T17:59:04.446Z,13.90
2022-10-25T18:01:37.134Z,14.00
2022-10-25T18:04:04.642Z,13.40
2022-10-25T18:06:32.716Z,13.70
2022-10-25T18:09:03.243Z,13.70
2022-10-25T18:11:31.286Z,13.60
2022-10-25T18:14:00.235Z,13.80
2022-10-25T18:16:30.997Z,13.60
2022-10-25T18:19:02.990Z,13.50
2022-10-25T18:21:32.010Z,13.50
2022-10-25T18:24:01.304Z,13.40
2022-10-25T18:26:28.723Z,13.40
2022-10-25T18:28:59.480Z,13.40
2022-10-25T18:31:27.338Z,13.40
2022-10-25T18:33:59.509Z,13.40
2022-10-25T18:36:30.849Z,14.10
2022-10-25T18:38:58.000Z,14.20
2022-10-25T18:41:31.438Z,13.20
2022-10-25T18:44:03.212Z,13.20
2022-10-25T18:46:33.459Z,13.80
2022-10-25T18:49:00.572Z,12.40
2022-10-25T18:51:30.267Z,13.10
2022-10-25T18:54:00.376Z,12.90
2022-10-25T18:56:33.106Z,13.00
2022-10-25T18:59:00.216Z,13.00
2022-10-25T19:01:32.830Z,13.00
2022-10-25T19:04:02.370Z,13.00
2022-10-25T19:06:29.831Z,12.90
2022-10-25T19:08:56.642Z,13.60
2022-10-25T19:11:23.716Z,12.90
2022-10-25T19:13:55.394Z,12.90
2022-10-25T19:16:23.048Z,12.80
2022-10-25T19:18:50.722Z,12.80
2022-10-25T19:21:18.671Z,12.80
2022-10-25T19:23:47.101Z,12.70
2022-10-25T19:26:19.467Z,12.80
2022-10-25T19:28:47.281Z,12.70
2022-10-25T19:31:16.494Z,12.70
2022-10-25T19:33:47.829Z,13.60
2022-10-25T19:36:15.226Z,11.60
2022-10-25T19:38:42.242Z,12.70
2022-10-25T19:41:12.131Z,12.30
2022-10-25T19:43:38.948Z,12.60
2022-10-25T19:46:09.712Z,12.50
2022-10-25T19:48:36.538Z,12.40
2022-10-25T19:51:15.298Z,12.10
2022-10-25T19:53:42.475Z,12.40
2022-10-25T19:56:17.320Z,12.40
2022-10-25T19:58:44.821Z,12.30
2022-10-25T20:01:14.152Z,12.30
2022-10-25T20:03:44.188Z,12.30
2022-10-25T20:06:18.725Z,12.30
2022-10-25T20:08:48.823Z,13.00
2022-10-25T20:11:16.678Z,12.20
2022-10-25T20:13:43.917Z,12.20
2022-10-25T20:16:11.217Z,12.00
2022-10-25T20:18:42.608Z,12.60
2022-10-25T20:21:13.905Z,12.00
2022-10-25T20:23:43.276Z,12.00
2022-10-25T20:26:17.121Z,11.90
2022-10-25T20:28:44.470Z,12.00
2022-10-25T20:31:13.975Z,11.90
2022-10-25T20:33:43.452Z,10.90
2022-10-25T20:36:12.359Z,11.80
2022-10-25T20:38:40.409Z,11.70
2022-10-25T20:41:16.770Z,11.60
2022-10-25T20:43:47.997Z,11.70
2022-10-25T20:46:15.536Z,11.60
2022-10-25T20:48:46.597Z,11.60
2022-10-25T20:51:15.512Z,11.50
2022-10-25T20:53:44.284Z,11.50
2022-10-25T20:56:12.316Z,11.50
2022-10-25T20:58:43.637Z,11.60
2022-10-25T21:01:10.928Z,11.50
2022-10-25T21:03:46.571Z,11.40
2022-10-25T21:06:15.635Z,11.40
2022-10-25T21:08:42.460Z,11.40
2022-10-25T21:11:12.273Z,11.40
2022-10-25T21:13:39.261Z,11.70
2022-10-25T21:16:14.118Z,11.40
2022-10-25T21:18:42.269Z,11.40
2022-10-25T21:21:15.415Z,11.30
2022-10-25T21:23:42.155Z,11.50
2022-10-25T21:26:10.130Z,11.30
2022-10-25T21:28:41.524Z,11.30
2022-10-25T21:31:13.179Z,11.30
2022-10-25T21:33:49.644Z,11.30
2022-10-25T21:36:27.977Z,11.20
2022-10-25T21:38:54.978Z,11.20
2022-10-25T21:41:30.268Z,11.20
2022-10-25T21:43:58.343Z,11.00
2022-10-25T21:46:26.764Z,10.90
2022-10-25T21:48:56.913Z,11.10
2022-10-25T21:51:24.445Z,11.10
2022-10-25T21:53:55.163Z,11.00
2022-10-25T21:56:31.216Z,10.90
2022-10-25T21:58:59.802Z,11.00
2022-10-25T22:01:29.410Z,11.10
2022-10-25T22:03:58.719Z,11.00
2022-10-25T22:06:29.915Z,11.00
2022-10-25T22:08:57.871Z,10.90
2022-10-25T22:11:27.298Z,10.90
2022-10-25T22:13:59.689Z,10.90
2022-10-25T22:16:27.477Z,10.90
2022-10-25T22:19:07.244Z,10.90
2022-10-25T22:21:40.120Z,10.90
2022-10-25T22:24:08.524Z,10.90
2022-10-25T22:26:35.886Z,10.80
2022-10-25T22:29:03.035Z,11.10
2022-10-25T22:31:30.789Z,10.80
2022-10-25T22:34:00.716Z,10.80
2022-10-25T22:36:34.206Z,10.80
2022-10-25T22:39:02.091Z,10.80
2022-10-25T22:41:29.744Z,10.80
2022-10-25T22:43:57.575Z,10.80
2022-10-25T22:46:32.445Z,10.70
2022-10-25T22:49:06.656Z,10.70
2022-10-25T22:51:34.467Z,11.10
2022-10-25T22:54:01.610Z,10.50
2022-10-25T22:56:30.373Z,10.70
2022-10-25T22:59:02.767Z,10.70
2022-10-25T23:01:36.344Z,10.60
2022-10-25T23:04:06.652Z,10.60
2022-10-25T23:06:38.511Z,11.80
2022-10-25T23:09:10.205Z,10.50
2022-10-25T23:11:38.665Z,10.60
2022-10-25T23:14:07.406Z,10.50
2022-10-25T23:16:34.403Z,11.20
2022-10-25T23:19:01.257Z,10.40
2022-10-25T23:21:31.022Z,10.40
2022-10-25T23:24:00.005Z,10.40
2022-10-25T23:26:30.195Z,10.40
2022-10-25T23:28:57.516Z,10.30
2022-10-25T23:31:25.492Z,10.30
2022-10-25T23:33:54.075Z,10.30
2022-10-25T23:36:23.631Z,10.20
2022-10-25T23:38:51.855Z,10.20
2022-10-25T23:41:20.679Z,10.20
2022-10-25T23:43:47.617Z,10.20
2022-10-25T23:46:14.563Z,10.30
2022-10-25T23:48:41.385Z,10.80
2022-10-25T23:51:13.450Z,10.10
2022-10-25T23:53:40.706Z,10.00
2022-10-25T23:56:09.590Z,10.00
2022-10-25T23:58:40.620Z,10.00
